Time;durP1;ratioP1;P1;durP2;ratioP2;P2;SDS_P1;SDS_P2;PMS_P1;PMS_P2;Temp;Humidity;BMP_temperature;BMP_pressure;BME280_temperature;BME280_humidity;BME280_pressure;Samples;Min_cycle;Max_cycle;Signal;HPM_P1;HPM_P2
2023/05/31 21:29:36;;;;;;;8.18;4.68;;;;;;;22.41;54.51;100973.16;5109089;27;20412;-75
2023/05/31 21:32:04;;;;;;;7.05;3.95;;;;;;;22.41;54.08;100978.75;5109203;28;20048;-73
2023/05/31 21:34:32;;;;;;;5.32;3.78;;;;;;;22.29;54.63;100976.81;5096114;28;20047;-75
2023/05/31 21:37:02;;;;;;;6.03;4.22;;;;;;;22.14;55.01;100978.31;5108252;28;20040;-74
2023/05/31 21:39:30;;;;;;;7.18;4.10;;;;;;;22.02;56.43;100971.59;5107366;28;20055;-74
2023/05/31 21:41:58;;;;;;;6.15;4.18;;;;;;;22.08;55.67;100968.56;5108754;28;20040;-76
2023/05/31 21:44:26;;;;;;;9.10;3.88;;;;;;;22.03;55.28;100964.03;5107547;28;20461;-76
2023/05/31 21:46:53;;;;;;;5.47;3.97;;;;;;;22.04;56.12;100964.84;5108360;28;20050;-73
2023/05/31 21:49:21;;;;;;;8.15;4.63;;;;;;;22.09;55.88;100961.84;5108323;28;20059;-74
2023/05/31 21:51:49;;;;;;;6.00;4.22;;;;;;;22.07;55.85;100962.19;5107368;28;20777;-72
2023/05/31 21:54:17;;;;;;;6.93;4.50;;;;;;;22.03;56.49;100969.59;5108114;28;20058;-73
2023/05/31 21:56:46;;;;;;;6.07;4.47;;;;;;;22.16;56.28;100973.22;5107043;28;20032;-74
2023/05/31 21:59:14;;;;;;;6.65;4.15;;;;;;;22.19;56.40;100980.06;5108300;28;20486;-73
2023/05/31 22:01:44;;;;;;;7.07;4.50;;;;;;;22.07;55.70;100969.72;5108629;28;20070;-78
2023/05/31 22:04:12;;;;;;;7.70;4.47;;;;;;;22.22;56.19;100976.56;5109185;28;20048;-75
2023/05/31 22:06:40;;;;;;;8.60;4.55;;;;;;;22.24;55.62;100982.59;5107976;28;20051;-77
2023/05/31 22:09:08;;;;;;;6.30;4.15;;;;;;;22.13;56.26;100982.25;5109035;28;20048;-77
2023/05/31 22:11:36;;;;;;;5.55;4.45;;;;;;;22.24;56.37;100977.03;5107866;28;20040;-77
2023/05/31 22:14:03;;;;;;;8.05;4.50;;;;;;;22.20;55.66;100979.72;5108910;28;20050;-77
2023/05/31 22:16:31;;;;;;;7.00;4.35;;;;;;;22.31;55.79;100984.78;5109073;28;20401;-77
2023/05/31 22:19:01;;;;;;;5.30;3.85;;;;;;;22.20;55.84;100974.13;5109002;28;20044;-77
2023/05/31 22:21:32;;;;;;;7.55;4.28;;;;;;;22.31;56.48;100973.63;5109279;28;20058;-77
2023/05/31 22:24:01;;;;;;;6.75;4.10;;;;;;;22.38;55.90;100971.09;5108896;28;20055;-77
2023/05/31 22:26:30;;;;;;;7.13;4.60;;;;;;;22.42;55.85;100967.25;5108923;28;20040;-77
2023/05/31 22:28:58;;;;;;;9.90;3.80;;;;;;;22.50;54.85;100973.84;5107625;28;20052;-76
2023/05/31 22:31:26;;;;;;;6.85;3.80;;;;;;;22.39;55.30;100978.28;5108375;28;20051;-76
2023/05/31 22:33:54;;;;;;;6.38;4.35;;;;;;;22.33;56.45;100974.13;5108587;28;20036;-77
2023/05/31 22:36:22;;;;;;;8.18;4.10;;;;;;;22.27;56.59;100982.72;5108653;28;20051;-77
2023/05/31 22:38:50;;;;;;;6.55;3.90;;;;;;;22.40;55.74;100980.69;5105507;28;20494;-77
2023/05/31 22:41:18;;;;;;;7.57;4.10;;;;;;;22.45;56.36;100982.47;5094762;28;20040;-77
2023/05/31 22:43:46;;;;;;;6.90;3.83;;;;;;;22.39;56.25;100984.66;5094975;28;20448;-77
2023/05/31 22:46:14;;;;;;;8.13;4.05;;;;;;;22.42;55.54;100977.56;5095027;28;20036;-77
2023/05/31 22:48:42;;;;;;;7.90;4.32;;;;;;;22.42;56.14;100975.59;5094814;28;20052;-77
2023/05/31 22:51:11;;;;;;;6.80;4.68;;;;;;;22.27;56.42;100979.94;5094818;28;20060;-77
2023/05/31 22:53:39;;;;;;;5.68;3.95;;;;;;;21.93;57.25;100979.25;5093553;28;20406;-77
2023/05/31 22:56:08;;;;;;;6.30;4.22;;;;;;;21.98;57.41;100975.41;5094670;28;20051;-76
2023/05/31 22:58:36;;;;;;;6.13;3.75;;;;;;;21.93;58.88;100962.53;5094641;28;20055;-77
2023/05/31 23:01:04;;;;;;;7.30;4.63;;;;;;;21.71;57.92;100964.63;5090999;28;20060;-77
2023/05/31 23:03:32;;;;;;;7.07;4.13;;;;;;;21.81;58.98;100965.31;5074244;28;20052;-77
2023/05/31 23:06:00;;;;;;;7.40;4.65;;;;;;;21.80;60.46;100958.94;5074438;28;20047;-76
2023/05/31 23:08:30;;;;;;;7.50;4.68;;;;;;;21.77;59.17;100965.22;5074102;28;20037;-76
2023/05/31 23:10:58;;;;;;;5.70;4.55;;;;;;;21.78;58.82;100966.84;5074129;28;20403;-77
2023/05/31 23:13:27;;;;;;;7.85;4.18;;;;;;;21.80;58.71;100963.72;5074012;28;20060;-77
2023/05/31 23:15:58;;;;;;;6.72;4.28;;;;;;;21.92;57.26;100965.66;5074026;28;20055;-77
2023/05/31 23:18:27;;;;;;;6.85;3.97;;;;;;;21.96;56.84;100961.84;5072788;28;20052;-77
2023/05/31 23:20:56;;;;;;;5.47;3.60;;;;;;;21.86;57.40;100962.31;5074075;28;20049;-77
2023/05/31 23:23:24;;;;;;;5.72;3.80;;;;;;;21.84;57.62;100968.22;5073970;28;20052;-76
2023/05/31 23:25:52;;;;;;;6.03;4.15;;;;;;;21.90;58.32;100966.03;5073962;28;20055;-77
2023/05/31 23:28:20;;;;;;;5.40;4.07;;;;;;;21.75;57.93;100961.94;5073677;28;20406;-77
2023/05/31 23:30:48;;;;;;;8.02;4.20;;;;;;;21.77;57.36;100958.81;5073868;28;20045;-77
2023/05/31 23:33:16;;;;;;;11.60;4.22;;;;;;;21.75;57.36;100951.63;5073582;28;20052;-77
2023/05/31 23:35:44;;;;;;;5.80;3.70;;;;;;;21.61;57.67;100951.13;5072595;28;20060;-77
2023/05/31 23:38:12;;;;;;;6.60;4.20;;;;;;;21.62;58.20;100947.19;5073695;28;20053;-77
2023/05/31 23:40:40;;;;;;;6.20;4.03;;;;;;;21.57;58.62;100958.56;5073723;28;20048;-77
2023/05/31 23:43:08;;;;;;;6.35;4.70;;;;;;;21.46;58.10;100944.28;5073611;28;20395;-77
2023/05/31 23:45:36;;;;;;;8.60;3.85;;;;;;;21.57;57.83;100941.84;5073599;28;20044;-77
2023/05/31 23:48:04;;;;;;;5.55;3.53;;;;;;;21.64;58.25;100942.06;5073573;28;20052;-77
2023/05/31 23:50:32;;;;;;;7.55;4.90;;;;;;;21.56;58.59;100945.78;5072992;28;20052;-77
2023/05/31 23:53:00;;;;;;;5.88;4.22;;;;;;;21.53;58.79;100944.50;5071547;28;20048;-77
2023/05/31 23:55:28;;;;;;;5.60;4.07;;;;;;;21.50;59.09;100939.63;5073137;28;20063;-77
2023/05/31 23:57:56;;;;;;;8.23;3.92;;;;;;;21.38;60.41;100946.00;5073260;28;20052;-77
